Station info - map view · info · telemetry · weather · raw · status · beacons · messages · bulletins · browse · moving · my account
Callsign, ship name or locator: Clear       
It is possible to search using wildcards (*?) after a prefix. Example: OH*
APRS station HB9RNP-9 - show graphs
Map loading...
Comment: YAESU VX-8, OP: Peter
Mic-E message: En route
Location: 46°44.97' N 7°38.81' E - locator JN36TR79OV - show map - static map
1.2 miles East bearing 96° from Thun, Thun, Bern, Switzerland [?]
3.4 miles East bearing 94° from Thierachern, Thun, Bern, Switzerland
60.2 miles Southwest bearing 225° from Zürich, Bezirk Zürich, Zurich, Switzerland
80.8 miles Northeast bearing 62° from Genève, Geneva, Geneva, Switzerland
Last position: 2018-09-15 20:54:46 EDT (10d 4h30m ago)
2018-09-16 02:54:46 CEST local time at Thun, Switzerland [?]
Altitude: 1936 ft
Course:
Device: Yaesu: VX-8 (ht)
Last path: HB9RNP-9>TV4TY7 via HB9CZV-5*,WIDE2-1,qAS,HB9CZV-5 (good)
Positions stored: 13345
Other SSIDs: HB9RNP-5
Stations near current position of HB9RNP-9 - show more
callsign distance last heard - EDT      callsign distance last heard - EDT
HB9BVR0.7 miles 144°2018-09-25 20:20:14 HB9AGA-140.9 miles 158°2018-09-26 01:24:32
DW96880.9 miles 226°2018-09-26 00:40:06 DW36951.3 miles 284°2018-09-26 01:24:54
N48101681.8 miles 34°2018-09-19 09:39:36 HB9ZA-92.2 miles 222°2018-09-10 10:31:15
HB9ROQ-12.3 miles 256°2018-09-22 09:41:03 HB9ROQ-Y2.3 miles 256°2018-08-31 10:45:09
HB9ROQ-N2.3 miles 256°2018-09-21 02:31:04 HB9ROQ-92.3 miles 256°2018-09-22 08:30:41
DW18442.5 miles 201°2018-09-26 01:11:41 EL-HB9CVG2.9 miles 255°2018-09-10 12:43:39
HB9TID-94.1 miles 99°2018-09-16 08:11:29 N48108824.5 miles 192°2018-09-19 11:27:40
HB9CZV-54.7 miles 161°2018-09-26 01:01:12 HB3YRJ4.9 miles 168°2018-09-12 11:51:45
N27133185.7 miles 340°2018-09-13 08:41:40 SC34013375.9 miles 337°2018-09-13 08:38:49
N47507775.9 miles 99°2018-08-27 21:46:13 P02103115.9 miles 231°2018-08-27 09:09:01
Stations which heard HB9RNP-9 directly on radio –
callsign pkts first heard - EDT last heard longest (tx => rx) longest at - EDT
HB9BA-2 2 2018-09-15 20:37:28 2018-09-15 20:53:44 JN36TR > JN37SB 22.7 miles 347° 2018-09-15 20:53:44
F1ZWR-3 5 2018-09-15 14:26:41 2018-09-15 15:25:01 JN23AQ > JN24DD 34.5 miles 23° 2018-09-15 14:26:41
F5ONG-3 1 2018-09-15 15:10:45 2018-09-15 15:10:45 JN24JE > JN24AA 36.6 miles 252° 2018-09-15 15:10:45
F1ZYB-3 29 2018-09-15 17:33:02 2018-09-15 18:53:12 JN25MT > JN26RE 32.4 miles 42° 2018-09-15 17:33:02
F1ZYS-3 18 2018-09-15 17:05:05 2018-09-15 17:30:27 JN25NS > JN25GQ 28.8 miles 259° 2018-09-15 17:28:21
F5ZZQ-3 4 2018-09-15 13:40:08 2018-09-15 14:05:33 JN13TL > JN12CS 85.8 miles 238° 2018-09-15 14:05:33
F1ZCJ-3 4 2018-09-15 13:41:49 2018-09-15 13:45:27 JN13OG > JN13FI 38.2 miles 280° 2018-09-15 13:45:27
HB4FV-4 10 2018-09-15 19:34:59 2018-09-15 19:46:44 JN36GN > JN36EQ 11.4 miles 321° 2018-09-15 19:34:59
HB9AVQ-10 8 2018-09-15 20:24:23 2018-09-15 20:33:18 JN36SW > JN36QW 4.8 miles 277° 2018-09-15 20:33:18
HB9AR-10 6 2018-09-15 18:54:13 2018-09-15 19:22:42 JN36EL > JN36BE 21.9 miles 208° 2018-09-15 19:22:42
F5ZCV-4 1 2018-09-15 19:50:50 2018-09-15 19:50:50 JN36IS > JN36EV 17.3 miles 299° 2018-09-15 19:50:50
F5ZDQ 1 2018-09-15 14:57:08 2018-09-15 14:57:08 JN23HX > JN23JW 6.8 miles 106° 2018-09-15 14:57:08
F1ZBG-4 1 2018-09-15 18:03:34 2018-09-15 18:03:34 JN25PW > JN25WA 69.7 miles 157° 2018-09-15 18:03:34
F5ZFL-4 18 2018-09-15 17:22:58 2018-09-15 19:27:39 JN25MQ > JN35BT 51.5 miles 80° 2018-09-15 17:22:58
HB9CZV-5 2 2018-09-15 20:54:15 2018-09-15 20:54:46 JN36TR > JN36UQ 4.7 miles 161° 2018-09-15 20:54:46
EB3EHJ-15 120 2018-09-15 09:30:27 2018-09-15 11:37:48 JN11CM > JN11GW 33.7 miles 31° 2018-09-15 09:30:27
HB9TOR-4 2 2018-09-15 19:32:24 2018-09-15 19:33:56 JN36GN > JN36GN 1.2 miles 136° 2018-09-15 19:33:56
ED2YAL-15 1 2018-09-15 05:24:15 2018-09-15 05:24:15 IM99UC > IN90LC 80.2 miles 330° 2018-09-15 05:24:15
F5ZWN-3 1 2018-09-15 13:14:27 2018-09-15 13:14:27 JN12KT > JN12BL 45.7 miles 241° 2018-09-15 13:14:27
F6KBR-2 1 2018-09-15 13:11:47 2018-09-15 13:11:47 JN12KR > JN12EO 28.5 miles 250° 2018-09-15 13:11:47
ED5ZAB-15 27 2018-09-15 05:43:39 2018-09-15 06:29:44 IM99SI > IM99TQ 22.1 miles 8° 2018-09-15 05:43:39
ED3ZAH-15 11 2018-09-15 09:05:50 2018-09-15 09:22:32 JN01UI > JN01VO 17.2 miles 14° 2018-09-15 09:05:50
EA5AER-2 6 2018-09-15 05:01:20 2018-09-15 05:10:17 IM98WV > JM08BT 12.7 miles 114° 2018-09-15 05:10:17
EA5IE-15 13 2018-09-15 06:31:16 2018-09-15 06:47:52 IM99WV > JN00AC 15.4 miles 34° 2018-09-15 06:31:16
HB9TVP-10 2 2018-09-15 20:34:23 2018-09-15 20:36:26 JN36SV > JN36SU 2.6 miles 179° 2018-09-15 20:34:23
EA5AHQ-12 11 2018-09-15 04:59:17 2018-09-15 05:58:04 JM08AS > IM99QK 57.2 miles 321° 2018-09-15 04:59:17
HB9FLL-10 12 2018-09-15 19:08:20 2018-09-15 19:38:42 JN36GP > JN36CH 28.0 miles 213° 2018-09-15 19:38:42
HB9FG-4 4 2018-09-15 19:51:20 2018-09-15 20:13:18 JN36IS > JN37MB 25.7 miles 39° 2018-09-15 19:51:20
EA5FLS-1 3 2018-09-15 05:41:34 2018-09-15 05:49:50 IM99RK > IM99TK 8.9 miles 89° 2018-09-15 05:49:50
HB9ARI-4 8 2018-09-15 20:03:49 2018-09-15 20:20:23 JN36LU > JN37NC 16.6 miles 25° 2018-09-15 20:03:49
HB9F-10 21 2018-09-15 20:20:49 2018-09-15 20:53:14 JN36PW > JN36WN 36.4 miles 138° 2018-09-15 20:20:49
F1ZJM-3 34 2018-09-15 12:50:16 2018-09-15 14:08:16 JN13UL > JN12LL 78.2 miles 209° 2018-09-15 14:08:16
EA5EBD-10 7 2018-09-15 05:24:10 2018-09-15 05:32:32 IM99TE > IM99UD 8.5 miles 104° 2018-09-15 05:32:32
F4HTU-3 16 2018-09-15 14:36:54 2018-09-15 14:54:49 JN23HW > JN23ET 14.7 miles 236° 2018-09-15 14:54:49
EA5AHQ-15 12 2018-09-15 05:30:54 2018-09-15 05:44:39 IM99SJ > IM99TF 12.5 miles 154° 2018-09-15 05:44:39
EA5RCD-10 19 2018-09-15 04:34:04 2018-09-15 05:45:41 IM99SJ > JM08BT 53.3 miles 140° 2018-09-15 05:45:41
EA3RDG-15 2 2018-09-15 09:26:14 2018-09-15 09:30:58 JN11CM > JN11BK 9.1 miles 201° 2018-09-15 09:30:58
HB9IPA-10 10 2018-09-15 19:59:40 2018-09-15 20:52:27 JN36KT > JN37SG 41.5 miles 45° 2018-09-15 19:59:40
F1DMG-10 7 2018-09-15 14:11:40 2018-09-15 14:22:47 JN13VM > JN13WP 9.9 miles 39° 2018-09-15 14:11:40
ED5YAN-4 2 2018-09-15 05:17:13 2018-09-15 05:23:10 IM99VC > IM98WV 13.1 miles 155° 2018-09-15 05:23:10
F1GHX-8 1 2018-09-15 16:11:46 2018-09-15 16:11:46 JN24JR > JN24JT 4.7 miles 356° 2018-09-15 16:11:46
EA5AFP-10 5 2018-09-15 05:11:37 2018-09-15 05:15:24 IM98WW > IM98VW 4.6 miles 270° 2018-09-15 05:11:37
HB9ADF-5 5 2018-09-15 20:19:48 2018-09-15 20:32:17 JN36PW > JN36SX 9.6 miles 85° 2018-09-15 20:19:48
EA5ELT-15 4 2018-09-15 05:55:00 2018-09-15 06:00:16 IM99SN > IM99SK 9.8 miles 199° 2018-09-15 06:00:16

Only position packets which were originated by the station are shown here. The range statistics show some extra long hops, because some digipeaters do not correctly add themselves to the digipeater path. Please check the raw packets.
About this site
This page shows real-time information collected from the Automatic Position Reporting System Internet network (APRS-IS). APRS is used by amateur (ham) radio operators to transmit real-time position information, weather data, telemetry and messages over the radio. A vehicle equipped with a GPS receiver, a VHF transmitter or HF transceiver and a small computer device called a tracker transmits it's location, speed and course in a small data packet, which is then received by a nearby iGate receiving site which forwards the packet on the Internet. Systems connected to the Internet can send information on the APRS-IS without a radio transmitter, or collect and display information transmitted anywhere in the world.
FAQ · Blog · Discussion group · Linking to aprs.fi · AIS sites · Service status · Database statistics · Advertising on aprs.fi · Technical details · API · Change log · Planned changes · Credits and thanks · Terms Of Service · iPhone/iPad APRS